Thoreau, New Mexico
Current Conditions -  °F | °C
As of 8:37 PM on Saturday 22 Nov 2014 (Local Time) from KGNT Reporting Station
Clear Clear  
Wind Chill: 39°   Ceiling: Unl
Heat Index: 39°   Visibility: 10mi
Dew Point: 10°   Wind: 3mph
Humidity: 31%   Direction: 310°NW
Pressure: 29.95"   Gusts: NA
Location:  35.4°N, 108.22°W
Report Text: KGNT 230337Z AUTO 31003KT 10SM CLR 04/M12 A2995 RMK AO2
Loading
Personal Weather Stations






























Interactive Weather Map New forecast layout! Learn more

10-Day Weather Forecast

Advertisements
Track Severe Weather on mobile